Time;durP1;ratioP1;P1;durP2;ratioP2;P2;SDS_P1;SDS_P2;PMS_P1;PMS_P2;Temp;Humidity;BMP_temperature;BMP_pressure;BME280_temperature;BME280_humidity;BME280_pressure;Samples;Min_cycle;Max_cycle;Signal;HPM_P1;HPM_P2
2022/12/03 00:02:15;;;;;;;55.00;25.20;;;-0.10;99.90;;;;;;5045904;28;20541;-78
2022/12/03 00:04:40;;;;;;;56.13;24.50;;;-0.20;99.90;;;;;;5048811;28;20878;-77
2022/12/03 00:07:06;;;;;;;50.30;23.87;;;-0.30;99.90;;;;;;5048906;28;20183;-76
2022/12/03 00:09:31;;;;;;;50.83;22.50;;;-0.30;99.90;;;;;;5049214;28;20748;-78
2022/12/03 00:11:57;;;;;;;54.13;23.70;;;-0.20;99.90;;;;;;5048915;28;20197;-77
2022/12/03 00:14:22;;;;;;;44.97;21.63;;;-0.20;99.90;;;;;;5049031;28;20297;-77
2022/12/03 00:16:48;;;;;;;51.27;23.43;;;-0.20;99.90;;;;;;5048255;28;20195;-78
2022/12/03 00:19:13;;;;;;;50.27;22.37;;;-0.20;99.90;;;;;;5049562;28;20186;-77
2022/12/03 00:21:39;;;;;;;42.53;22.03;;;-0.30;99.90;;;;;;5046875;28;20635;-77
2022/12/03 00:24:05;;;;;;;44.80;21.73;;;-0.20;99.90;;;;;;5046181;28;20217;-77
2022/12/03 00:26:30;;;;;;;41.17;20.97;;;-0.20;99.90;;;;;;5047149;28;20664;-76
2022/12/03 00:28:56;;;;;;;40.83;20.63;;;-0.20;99.90;;;;;;5048873;28;20217;-77
2022/12/03 00:31:23;;;;;;;42.33;20.50;;;-0.20;99.90;;;;;;5048541;28;20319;-77
2022/12/03 00:33:49;;;;;;;36.67;18.70;;;-0.20;99.90;;;;;;5048306;28;20208;-78
2022/12/03 00:36:15;;;;;;;38.83;19.17;;;-0.10;99.90;;;;;;5047771;28;20182;-77
2022/12/03 00:38:41;;;;;;;40.47;19.83;;;-0.10;99.90;;;;;;5047247;28;20202;-78
2022/12/03 00:41:06;;;;;;;40.53;20.83;;;-0.20;99.90;;;;;;5049251;28;20790;-78
2022/12/03 00:43:32;;;;;;;41.10;20.33;;;-0.20;99.90;;;;;;5048315;28;20206;-76
2022/12/03 00:45:58;;;;;;;44.50;21.60;;;-0.30;99.90;;;;;;5048938;28;20212;-76
2022/12/03 00:48:23;;;;;;;47.03;22.87;;;-0.20;99.90;;;;;;5048934;28;20240;-77
2022/12/03 00:50:49;;;;;;;48.53;23.00;;;-0.20;99.90;;;;;;5049130;28;20221;-77
2022/12/03 00:53:14;;;;;;;47.07;23.60;;;-0.30;99.90;;;;;;5048122;28;20697;-76
2022/12/03 00:55:40;;;;;;;43.97;22.07;;;-0.20;99.90;;;;;;5048803;28;20198;-76
2022/12/03 00:58:07;;;;;;;45.83;23.13;;;-0.30;99.90;;;;;;5049105;28;20189;-78
2022/12/03 01:00:33;;;;;;;47.93;23.20;;;-0.30;99.90;;;;;;5048879;28;20193;-78
2022/12/03 01:02:58;;;;;;;49.87;24.77;;;-0.20;99.90;;;;;;5048838;28;20210;-77
2022/12/03 01:05:24;;;;;;;49.03;22.60;;;-0.20;99.90;;;;;;5048292;28;20260;-77
2022/12/03 01:07:50;;;;;;;51.70;23.33;;;-0.10;99.90;;;;;;5049096;28;20566;-78
2022/12/03 01:10:15;;;;;;;51.57;25.10;;;-0.20;99.90;;;;;;5048332;28;20209;-77
2022/12/03 01:12:41;;;;;;;55.40;24.60;;;-0.20;99.90;;;;;;5047670;28;20221;-76
2022/12/03 01:15:08;;;;;;;52.30;23.27;;;-0.30;99.90;;;;;;5048872;28;20178;-77
2022/12/03 01:17:34;;;;;;;48.50;23.10;;;-0.30;99.90;;;;;;5046941;28;20210;-75
2022/12/03 01:20:00;;;;;;;51.13;23.33;;;-0.20;99.90;;;;;;5048644;28;20225;-78
2022/12/03 01:22:26;;;;;;;46.80;22.33;;;-0.30;99.90;;;;;;5047664;28;20193;-78
2022/12/03 01:24:52;;;;;;;44.67;20.30;;;-0.40;99.90;;;;;;5046913;28;20218;-77
2022/12/03 01:27:17;;;;;;;44.50;21.90;;;-0.50;99.90;;;;;;5046078;28;20843;-76
2022/12/03 01:29:43;;;;;;;43.43;20.40;;;-0.50;99.90;;;;;;5045426;28;20213;-76
2022/12/03 01:32:15;;;;;;;44.23;18.87;;;-0.60;99.90;;;;;;5046320;28;20182;-77
2022/12/03 01:34:50;;;;;;;41.40;19.37;;;-0.50;99.90;;;;;;5048322;28;20535;-77
2022/12/03 01:37:16;;;;;;;40.30;18.67;;;-0.50;99.90;;;;;;5047679;28;20575;-76
2022/12/03 01:39:43;;;;;;;33.67;17.10;;;-0.50;99.90;;;;;;5047732;28;20208;-77
2022/12/03 01:42:13;;;;;;;39.10;17.27;;;-0.40;99.90;;;;;;5045175;28;20178;-77
2022/12/03 01:44:40;;;;;;;32.17;15.53;;;-0.10;99.90;;;;;;5044348;28;20201;-77
2022/12/03 01:47:11;;;;;;;35.83;16.27;;;-0.30;99.90;;;;;;5045905;28;20204;-78
2022/12/03 01:49:42;;;;;;;31.83;16.83;;;-0.20;99.90;;;;;;5046936;28;20198;-77
2022/12/03 01:52:12;;;;;;;35.23;16.87;;;-0.20;99.90;;;;;;5047127;28;20174;-77
2022/12/03 01:54:43;;;;;;;35.83;17.37;;;-0.20;99.90;;;;;;5047822;28;20748;-78
2022/12/03 01:57:46;;;;;;;34.37;16.57;;;-0.30;99.90;;;;;;5047712;28;20189;-77
2022/12/03 02:00:14;;;;;;;40.77;17.80;;;-0.20;99.90;;;;;;5046630;28;20722;-76
2022/12/03 02:02:40;;;;;;;40.63;18.17;;;-0.30;99.90;;;;;;5047362;28;20178;-77
2022/12/03 02:05:15;;;;;;;38.43;18.67;;;-0.30;99.90;;;;;;5046003;28;20189;-78
2022/12/03 02:07:40;;;;;;;38.30;17.93;;;-0.30;99.90;;;;;;5046831;28;20196;-77
2022/12/03 02:10:06;;;;;;;39.97;19.13;;;-0.40;99.90;;;;;;5046868;28;20206;-77
2022/12/03 02:12:41;;;;;;;38.60;18.03;;;-0.40;99.90;;;;;;5047932;28;20660;-78
2022/12/03 02:15:08;;;;;;;39.20;17.97;;;-0.50;99.90;;;;;;5047845;28;20177;-77
2022/12/03 02:17:33;;;;;;;37.97;16.90;;;-0.60;99.90;;;;;;5047048;28;21145;-77
2022/12/03 02:20:01;;;;;;;41.50;17.57;;;-0.60;99.90;;;;;;5045978;28;20205;-77
2022/12/03 02:22:29;;;;;;;37.67;16.57;;;-0.60;99.90;;;;;;5044478;28;20675;-78
2022/12/03 02:24:58;;;;;;;39.97;17.27;;;-0.60;99.90;;;;;;5045028;28;20285;-78
2022/12/03 02:27:26;;;;;;;34.63;15.87;;;-0.50;99.90;;;;;;5044246;28;20190;-76
2022/12/03 02:29:52;;;;;;;38.03;15.90;;;-0.40;99.90;;;;;;5047002;28;20217;-77
2022/12/03 02:32:22;;;;;;;37.27;15.53;;;-0.30;99.90;;;;;;5046761;28;20187;-77
2022/12/03 02:34:48;;;;;;;33.17;15.60;;;-0.40;99.90;;;;;;5047104;28;20204;-78
2022/12/03 02:37:32;;;;;;;33.47;15.87;;;-0.40;99.90;;;;;;5047121;28;20271;-77
2022/12/03 02:40:00;;;;;;;31.37;15.17;;;-0.50;99.90;;;;;;5046741;28;20190;-77
2022/12/03 02:42:35;;;;;;;37.17;15.57;;;-0.50;99.90;;;;;;5047413;28;20190;-78
2022/12/03 02:45:32;;;;;;;33.40;15.07;;;-0.50;99.90;;;;;;5047058;28;20197;-78
2022/12/03 02:48:03;;;;;;;32.90;16.80;;;-0.40;99.90;;;;;;5041516;28;20204;-77
2022/12/03 02:50:33;;;;;;;37.33;15.77;;;-0.50;99.90;;;;;;5046200;28;20203;-77
2022/12/03 02:53:04;;;;;;;36.10;17.13;;;-0.60;99.90;;;;;;5037258;28;20355;-77
2022/12/03 02:55:31;;;;;;;32.00;14.93;;;-0.70;99.90;;;;;;5045360;28;20193;-78
2022/12/03 02:57:57;;;;;;;33.13;16.10;;;-0.70;99.90;;;;;;5045260;28;20185;-78
2022/12/03 03:00:22;;;;;;;34.33;16.23;;;-0.70;99.90;;;;;;5047001;28;20182;-76
2022/12/03 03:02:52;;;;;;;34.40;16.87;;;-0.70;99.90;;;;;;5046909;28;20194;-78
2022/12/03 03:05:20;;;;;;;34.50;15.80;;;-0.70;99.90;;;;;;5046419;28;20660;-77
2022/12/03 03:07:47;;;;;;;35.67;17.00;;;-0.60;99.90;;;;;;5045454;28;20190;-77
2022/12/03 03:10:15;;;;;;;34.30;16.70;;;-0.60;99.90;;;;;;5045314;28;20802;-77
2022/12/03 03:12:41;;;;;;;34.37;17.37;;;-0.60;99.90;;;;;;5045173;28;20655;-77
2022/12/03 03:15:10;;;;;;;33.03;16.73;;;-0.30;99.90;;;;;;5046655;28;20189;-76
2022/12/03 03:17:36;;;;;;;31.13;16.30;;;-0.80;99.90;;;;;;5046765;28;20177;-77
2022/12/03 03:20:02;;;;;;;29.40;15.97;;;-0.80;99.90;;;;;;5046619;28;20185;-77
2022/12/03 03:22:35;;;;;;;33.20;16.37;;;-0.70;99.90;;;;;;5046411;28;21253;-78
2022/12/03 03:25:01;;;;;;;29.43;15.63;;;-0.70;99.90;;;;;;5046887;28;20240;-77
2022/12/03 03:27:27;;;;;;;29.80;14.90;;;-0.60;99.90;;;;;;5047911;28;20182;-78
2022/12/03 03:29:54;;;;;;;32.03;17.53;;;-0.50;99.90;;;;;;5047040;28;20698;-77
2022/12/03 03:32:20;;;;;;;27.87;15.20;;;-0.70;99.90;;;;;;5046024;28;20182;-77
2022/12/03 03:34:46;;;;;;;32.27;16.53;;;-0.60;99.90;;;;;;5046014;28;20259;-77
2022/12/03 03:37:11;;;;;;;28.23;15.40;;;-0.40;99.90;;;;;;5046943;28;20186;-78
2022/12/03 03:39:37;;;;;;;29.10;17.03;;;-0.40;99.90;;;;;;5049331;28;20668;-78
2022/12/03 03:42:03;;;;;;;31.33;16.47;;;-0.50;99.90;;;;;;5048390;28;20186;-77
2022/12/03 03:44:28;;;;;;;34.23;18.37;;;-0.50;99.90;;;;;;5047311;28;20245;-76
2022/12/03 03:46:56;;;;;;;36.00;18.70;;;-0.70;99.90;;;;;;5047454;28;20186;-78
2022/12/03 03:49:22;;;;;;;34.30;18.67;;;-0.80;99.90;;;;;;5048399;28;20271;-78
2022/12/03 03:51:47;;;;;;;37.67;19.60;;;-0.70;99.90;;;;;;5050091;28;20186;-78
2022/12/03 03:54:13;;;;;;;36.27;19.70;;;-0.80;99.90;;;;;;5049884;28;20656;-77
2022/12/03 03:56:39;;;;;;;37.73;20.37;;;-0.80;99.90;;;;;;5049384;28;20269;-78
2022/12/03 03:59:05;;;;;;;36.23;19.30;;;-0.80;99.90;;;;;;5050081;28;20241;-76
2022/12/03 04:01:31;;;;;;;34.40;18.30;;;-0.80;99.90;;;;;;5048107;28;20186;-78
2022/12/03 04:03:58;;;;;;;35.63;19.50;;;-0.80;99.90;;;;;;5050041;28;20730;-76
2022/12/03 04:06:27;;;;;;;32.63;18.10;;;-0.80;99.90;;;;;;5048370;28;20214;-78
2022/12/03 04:08:53;;;;;;;35.40;19.33;;;-0.70;99.90;;;;;;5049780;28;20182;-78
2022/12/03 04:14:03;;;;;;;31.10;17.67;;;-0.70;99.90;;;;;;5049408;28;20213;-78
2022/12/03 04:16:28;;;;;;;36.33;18.83;;;-0.70;99.90;;;;;;5048990;28;20398;-77
2022/12/03 04:18:54;;;;;;;34.03;18.73;;;-0.70;99.90;;;;;;5048589;28;20196;-78
2022/12/03 04:24:07;;;;;;;30.33;16.70;;;-0.70;99.90;;;;;;5049351;28;20462;-75
2022/12/03 04:29:18;;;;;;;29.47;16.73;;;-0.70;99.90;;;;;;5046298;28;20220;-77
2022/12/03 04:37:12;;;;;;;33.80;18.43;;;-0.70;99.90;;;;;;5049382;28;20201;-78
2022/12/03 04:39:37;;;;;;;31.60;17.90;;;-0.70;99.90;;;;;;5049484;28;20641;-77
2022/12/03 04:42:04;;;;;;;31.83;17.07;;;-0.60;99.90;;;;;;5049171;28;20264;-76
2022/12/03 04:44:34;;;;;;;32.97;18.47;;;-0.70;99.90;;;;;;5047446;28;20210;-78
2022/12/03 04:47:02;;;;;;;35.03;19.33;;;-0.80;99.90;;;;;;5047004;28;20194;-78
2022/12/03 04:49:28;;;;;;;36.30;18.47;;;-0.90;99.90;;;;;;5048331;28;20213;-78
2022/12/03 04:51:53;;;;;;;33.20;18.37;;;-0.90;99.90;;;;;;5049252;28;20182;-77
2022/12/03 04:54:19;;;;;;;33.73;17.63;;;-0.80;99.90;;;;;;5048291;28;20209;-78
2022/12/03 04:56:45;;;;;;;33.47;16.97;;;-0.80;99.90;;;;;;5049035;28;20260;-78
2022/12/03 04:59:11;;;;;;;31.90;17.77;;;-0.80;99.90;;;;;;5044513;28;20243;-77
2022/12/03 05:01:36;;;;;;;32.07;17.33;;;-0.80;99.90;;;;;;5045660;28;20250;-77
2022/12/03 05:04:02;;;;;;;35.43;22.77;;;-0.80;99.90;;;;;;5045525;28;20275;-77
2022/12/03 05:06:28;;;;;;;28.10;15.77;;;-0.80;99.90;;;;;;5045528;28;20206;-76
2022/12/03 05:08:53;;;;;;;35.73;21.70;;;-0.80;99.90;;;;;;5046154;28;20186;-77
2022/12/03 05:11:19;;;;;;;31.93;19.27;;;-0.80;99.90;;;;;;5043953;28;20174;-78
2022/12/03 05:13:44;;;;;;;30.93;17.93;;;-0.70;99.90;;;;;;5046642;28;20229;-77
2022/12/03 05:16:10;;;;;;;32.57;18.83;;;-0.60;99.90;;;;;;5045647;28;20238;-78
2022/12/03 05:18:36;;;;;;;30.53;17.13;;;-0.60;99.90;;;;;;5045685;28;20186;-78
2022/12/03 05:21:01;;;;;;;29.70;18.87;;;-0.60;99.90;;;;;;5047443;28;20190;-75
2022/12/03 05:23:27;;;;;;;41.33;27.73;;;-0.60;99.90;;;;;;5046155;28;20810;-78
2022/12/03 05:25:53;;;;;;;35.80;19.67;;;-0.60;99.90;;;;;;5045746;28;20178;-77
2022/12/03 05:28:20;;;;;;;35.20;20.30;;;-0.70;99.90;;;;;;5046626;28;20309;-77
2022/12/03 05:30:46;;;;;;;33.83;17.90;;;-0.60;99.90;;;;;;5047192;28;20298;-78
2022/12/03 05:33:12;;;;;;;45.90;24.23;;;-0.60;99.90;;;;;;5045536;28;20736;-78
2022/12/03 05:35:38;;;;;;;50.13;27.37;;;-0.70;99.90;;;;;;5046180;28;20189;-78
2022/12/03 05:38:03;;;;;;;52.80;30.13;;;-0.90;99.90;;;;;;5046245;28;20553;-77
2022/12/03 05:40:29;;;;;;;44.27;22.83;;;-0.90;99.90;;;;;;5047130;28;20569;-77
2022/12/03 05:43:00;;;;;;;47.50;23.97;;;-1.00;99.90;;;;;;5046194;28;20273;-78
2022/12/03 05:45:32;;;;;;;40.03;21.53;;;-1.00;99.90;;;;;;5045401;28;20182;-77
2022/12/03 05:47:59;;;;;;;66.17;32.90;;;-0.90;99.90;;;;;;5045702;28;20660;-78
2022/12/03 05:50:27;;;;;;;44.97;23.43;;;-0.90;99.90;;;;;;5045665;28;20240;-78
2022/12/03 05:52:53;;;;;;;68.13;48.10;;;-0.90;99.90;;;;;;5046471;28;20179;-78
2022/12/03 05:55:20;;;;;;;46.80;23.97;;;-0.90;99.90;;;;;;5050268;28;20182;-76
2022/12/03 05:57:46;;;;;;;47.30;23.97;;;-0.90;99.90;;;;;;5049280;28;20619;-77
2022/12/03 06:00:18;;;;;;;49.70;24.80;;;-0.90;99.90;;;;;;5037461;28;20178;-76
2022/12/03 06:02:44;;;;;;;47.70;24.20;;;-0.90;99.90;;;;;;5044520;28;20246;-77
2022/12/03 06:05:11;;;;;;;51.03;24.47;;;-1.00;99.90;;;;;;5046367;28;20269;-77
2022/12/03 06:07:37;;;;;;;54.23;25.27;;;-1.00;99.90;;;;;;5044828;28;20658;-78
2022/12/03 06:10:05;;;;;;;52.30;27.23;;;-1.00;99.90;;;;;;5046864;28;20308;-77
2022/12/03 06:12:30;;;;;;;46.30;24.13;;;-0.90;99.90;;;;;;5045902;28;20185;-77
2022/12/03 06:14:56;;;;;;;55.10;24.67;;;-1.00;99.90;;;;;;5046082;28;20198;-77
2022/12/03 06:17:21;;;;;;;53.03;25.90;;;-1.10;99.90;;;;;;5044376;28;20245;-77
2022/12/03 06:19:47;;;;;;;48.40;24.23;;;-1.00;99.90;;;;;;5044599;28;21126;-78
2022/12/03 06:22:13;;;;;;;45.93;22.93;;;-1.00;99.90;;;;;;5045593;28;20189;-77
2022/12/03 06:24:38;;;;;;;45.37;23.93;;;-0.30;99.90;;;;;;5045172;28;20225;-77
2022/12/03 06:27:04;;;;;;;45.83;23.20;;;-1.10;99.90;;;;;;5045043;28;20936;-76
2022/12/03 06:29:30;;;;;;;47.63;23.57;;;-1.10;99.90;;;;;;5046297;28;20213;-77
2022/12/03 06:31:55;;;;;;;44.73;22.30;;;-1.10;99.90;;;;;;5045847;28;20182;-77
2022/12/03 06:34:21;;;;;;;45.20;22.83;;;-1.00;99.90;;;;;;5046611;28;20209;-78
2022/12/03 06:36:48;;;;;;;41.97;21.00;;;-1.00;99.90;;;;;;5042953;28;20186;-78
2022/12/03 06:39:15;;;;;;;44.20;21.87;;;-1.00;99.90;;;;;;5045259;28;20240;-78
2022/12/03 06:41:40;;;;;;;45.87;23.17;;;-1.00;99.90;;;;;;5044110;28;20186;-78
2022/12/03 06:44:06;;;;;;;47.83;23.30;;;-0.90;99.90;;;;;;5044706;28;20580;-78
2022/12/03 06:46:31;;;;;;;43.87;22.43;;;-1.00;99.90;;;;;;5043702;28;20209;-78
2022/12/03 06:48:57;;;;;;;47.10;23.10;;;-1.00;99.90;;;;;;5044567;28;20186;-78
2022/12/03 06:51:23;;;;;;;48.93;24.70;;;-1.00;99.90;;;;;;5043805;28;20190;-77
2022/12/03 06:53:48;;;;;;;48.90;25.33;;;-1.00;99.90;;;;;;5038034;28;20209;-78
2022/12/03 06:56:14;;;;;;;42.97;22.80;;;-1.00;99.90;;;;;;5042552;28;20654;-77
2022/12/03 06:58:39;;;;;;;46.53;22.87;;;-1.00;99.90;;;;;;5043959;28;20178;-78
2022/12/03 07:01:05;;;;;;;45.17;24.07;;;-1.00;99.90;;;;;;5043918;28;20269;-78
2022/12/03 07:03:30;;;;;;;49.87;25.20;;;-1.10;99.90;;;;;;5042440;28;20695;-78
2022/12/03 07:05:56;;;;;;;42.43;23.17;;;-1.10;99.90;;;;;;5043421;28;20194;-78
2022/12/03 07:08:21;;;;;;;48.87;24.10;;;-1.00;99.90;;;;;;5042838;28;20186;-77
2022/12/03 07:10:47;;;;;;;46.30;23.83;;;-1.00;99.90;;;;;;5043353;28;21245;-78
2022/12/03 07:13:13;;;;;;;47.50;25.43;;;-1.00;99.90;;;;;;5042749;28;20201;-78
2022/12/03 07:15:38;;;;;;;48.67;24.37;;;-0.90;99.90;;;;;;5044555;28;20194;-79
2022/12/03 07:18:04;;;;;;;44.63;24.57;;;-0.90;99.90;;;;;;5041924;28;20248;-78
2022/12/03 07:20:29;;;;;;;49.17;24.13;;;-0.90;99.90;;;;;;5044071;28;20190;-78
2022/12/03 07:22:55;;;;;;;51.27;25.13;;;-1.00;99.90;;;;;;5042308;28;20216;-78
2022/12/03 07:25:20;;;;;;;47.00;25.50;;;-1.00;99.90;;;;;;5043590;28;20263;-79
2022/12/03 07:27:46;;;;;;;57.83;33.30;;;-1.00;99.90;;;;;;5043733;28;20248;-77
2022/12/03 07:30:14;;;;;;;48.07;25.43;;;-0.90;99.90;;;;;;5042316;28;20775;-78
2022/12/03 07:32:39;;;;;;;53.10;27.93;;;-0.90;99.90;;;;;;5041611;28;20186;-78
2022/12/03 07:35:06;;;;;;;59.10;29.70;;;-1.00;99.90;;;;;;5041857;28;20216;-78
2022/12/03 07:37:32;;;;;;;53.57;27.37;;;-0.90;99.90;;;;;;5042393;28;20186;-78
2022/12/03 07:39:58;;;;;;;59.87;28.23;;;-0.90;99.90;;;;;;5044357;28;20205;-77
2022/12/03 07:42:24;;;;;;;62.37;32.13;;;-1.00;99.90;;;;;;5042490;28;20194;-77
2022/12/03 07:44:50;;;;;;;60.07;28.27;;;-1.00;99.90;;;;;;5041400;28;20202;-77
2022/12/03 07:47:16;;;;;;;57.07;29.97;;;-1.10;99.90;;;;;;5039932;28;20221;-77
2022/12/03 07:49:42;;;;;;;53.57;26.90;;;-1.00;99.90;;;;;;5037973;28;20210;-78
2022/12/03 07:52:07;;;;;;;58.73;29.50;;;-1.00;99.90;;;;;;5040096;28;20189;-77
2022/12/03 07:54:33;;;;;;;54.77;26.80;;;-0.90;99.90;;;;;;5040978;28;20214;-77
2022/12/03 07:56:59;;;;;;;54.63;27.83;;;-0.90;99.90;;;;;;5041721;28;20190;-77
2022/12/03 07:59:24;;;;;;;61.87;28.77;;;-0.90;99.90;;;;;;5042589;28;20690;-78
2022/12/03 08:01:50;;;;;;;54.23;27.53;;;-0.90;99.90;;;;;;5042667;28;20563;-76
2022/12/03 08:04:17;;;;;;;58.90;29.63;;;-0.80;99.90;;;;;;5042285;28;20198;-77
2022/12/03 08:06:44;;;;;;;55.23;27.43;;;-0.80;99.90;;;;;;5042534;28;20247;-77
2022/12/03 08:09:10;;;;;;;60.60;28.50;;;-0.80;99.90;;;;;;5042178;28;20289;-78
2022/12/03 08:11:35;;;;;;;60.83;29.27;;;-0.80;99.90;;;;;;5040998;28;20309;-77
2022/12/03 08:14:06;;;;;;;54.53;26.80;;;-0.80;99.90;;;;;;5040944;28;20206;-77
2022/12/03 08:16:35;;;;;;;56.77;28.23;;;-0.80;99.90;;;;;;5042229;28;20247;-77
2022/12/03 08:19:04;;;;;;;50.93;26.40;;;-0.70;99.90;;;;;;5040014;28;20186;-78
2022/12/03 08:21:35;;;;;;;51.27;27.27;;;-0.70;99.90;;;;;;5038795;28;20218;-78
2022/12/03 08:24:18;;;;;;;46.90;25.87;;;-0.60;99.90;;;;;;5044484;28;20225;-77
2022/12/03 08:26:45;;;;;;;55.07;27.23;;;-0.60;99.90;;;;;;5046025;28;20265;-78
2022/12/03 08:29:13;;;;;;;56.80;29.53;;;-0.60;99.90;;;;;;5045502;28;20221;-77
2022/12/03 08:31:39;;;;;;;54.17;29.00;;;-0.80;99.90;;;;;;5043464;28;20504;-77
2022/12/03 08:34:23;;;;;;;58.63;28.80;;;-0.80;99.90;;;;;;5044198;28;20545;-78
2022/12/03 08:36:54;;;;;;;60.13;31.03;;;-0.80;99.90;;;;;;5044918;28;20193;-78
2022/12/03 08:39:34;;;;;;;52.77;27.97;;;-0.90;99.90;;;;;;5042605;28;20186;-77
2022/12/03 08:45:24;;;;;;;55.87;28.60;;;-0.60;99.90;;;;;;5044937;28;20255;-77
2022/12/03 08:47:49;;;;;;;57.23;29.03;;;-0.70;99.90;;;;;;5043609;28;20190;-77
2022/12/03 08:50:30;;;;;;;55.67;27.97;;;-0.60;99.90;;;;;;5045834;28;20685;-77
2022/12/03 08:53:24;;;;;;;52.63;26.73;;;-0.60;99.90;;;;;;5042118;28;20182;-76
2022/12/03 08:55:52;;;;;;;49.43;27.93;;;-0.50;99.90;;;;;;5043376;28;20801;-77
2022/12/03 08:58:29;;;;;;;52.27;27.73;;;-0.40;92.50;;;;;;5044002;28;20281;-76
2022/12/03 09:01:05;;;;;;;49.17;26.67;;;-0.40;93.10;;;;;;5041673;28;20268;-77
2022/12/03 09:03:31;;;;;;;50.47;26.77;;;-0.20;93.30;;;;;;5041527;28;20748;-78
2022/12/03 09:05:57;;;;;;;48.83;27.40;;;-0.20;75.80;;;;;;5039665;28;20345;-77
2022/12/03 09:08:22;;;;;;;47.07;28.67;;;-0.20;78.70;;;;;;5041440;28;20738;-77
2022/12/03 09:10:48;;;;;;;50.67;27.43;;;-0.20;68.20;;;;;;5041661;28;20221;-77
2022/12/03 09:13:14;;;;;;;49.07;27.13;;;0.00;86.70;;;;;;5043399;28;20755;-78
2022/12/03 09:15:39;;;;;;;46.03;26.40;;;0.00;64.10;;;;;;5044351;28;20878;-78
2022/12/03 09:18:05;;;;;;;53.43;29.90;;;0.00;68.20;;;;;;5040917;28;20269;-77
2022/12/03 09:20:30;;;;;;;47.17;26.17;;;-0.10;57.50;;;;;;5044126;28;20198;-76
2022/12/03 09:22:56;;;;;;;51.00;29.10;;;-0.20;58.20;;;;;;5043467;28;20639;-78
2022/12/03 09:25:22;;;;;;;54.27;29.90;;;-0.30;51.00;;;;;;5044161;28;20279;-78
2022/12/03 09:27:48;;;;;;;51.43;32.10;;;-0.40;63.30;;;;;;5040032;28;20197;-77
2022/12/03 09:30:14;;;;;;;50.97;29.00;;;-0.30;60.20;;;;;;5038738;28;20206;-78
2022/12/03 09:32:40;;;;;;;48.50;30.70;;;-0.20;64.20;;;;;;5040679;28;20201;-77
2022/12/03 09:35:06;;;;;;;48.30;27.93;;;-0.10;54.30;;;;;;5043312;28;20205;-77
2022/12/03 09:37:32;;;;;;;53.87;29.93;;;-0.30;42.80;;;;;;5040013;28;20327;-77
2022/12/03 09:40:08;;;;;;;47.63;28.33;;;-0.30;62.30;;;;;;5042588;28;20269;-77
2022/12/03 09:42:34;;;;;;;53.97;29.43;;;-0.30;65.10;;;;;;5032377;28;20200;-77
2022/12/03 09:45:01;;;;;;;46.93;27.67;;;-0.30;61.50;;;;;;5044610;28;20557;-78
2022/12/03 09:47:28;;;;;;;47.33;28.13;;;-0.20;60.80;;;;;;5044442;28;20186;-78
2022/12/03 09:49:55;;;;;;;49.67;33.00;;;-0.10;43.00;;;;;;5041893;28;20676;-77
2022/12/03 09:52:25;;;;;;;48.77;29.80;;;0.00;54.80;;;;;;5043586;28;20683;-78
2022/12/03 09:54:50;;;;;;;42.07;24.57;;;-0.20;33.50;;;;;;5042894;28;20284;-78
2022/12/03 09:57:17;;;;;;;43.43;24.70;;;-0.10;41.30;;;;;;5040898;28;20269;-77
2022/12/03 09:59:43;;;;;;;44.83;26.93;;;-0.10;42.40;;;;;;5039023;28;20195;-78
2022/12/03 10:02:26;;;;;;;42.77;26.90;;;-0.10;43.90;;;;;;5039046;28;20187;-78
2022/12/03 10:04:52;;;;;;;46.10;28.37;;;0.00;41.00;;;;;;5035890;28;20210;-78
2022/12/03 10:07:18;;;;;;;44.60;26.03;;;0.00;35.20;;;;;;5040367;28;20198;-77
2022/12/03 10:09:43;;;;;;;46.57;28.27;;;0.20;33.40;;;;;;5041101;28;20477;-78
2022/12/03 10:12:12;;;;;;;44.50;27.57;;;0.30;23.50;;;;;;5041920;28;20229;-77
2022/12/03 10:14:38;;;;;;;44.00;28.13;;;0.30;23.90;;;;;;5041467;28;20198;-78
2022/12/03 10:17:03;;;;;;;45.33;30.07;;;0.20;19.50;;;;;;5042754;28;20190;-78
2022/12/03 10:19:31;;;;;;;43.07;26.03;;;0.40;13.80;;;;;;5043055;28;20530;-77
2022/12/03 10:21:57;;;;;;;45.73;28.87;;;0.40;11.00;;;;;;5041167;28;20277;-80
2022/12/03 10:24:28;;;;;;;43.20;28.53;;;0.40;13.00;;;;;;5042097;28;20300;-77
2022/12/03 10:26:56;;;;;;;45.40;29.17;;;0.30;8.30;;;;;;5039467;28;20656;-78
2022/12/03 10:29:33;;;;;;;44.10;27.07;;;0.40;18.70;;;;;;5036296;28;20229;-78
2022/12/03 10:32:00;;;;;;;47.40;27.40;;;0.30;9.30;;;;;;5032647;28;20194;-78
2022/12/03 10:34:41;;;;;;;50.40;30.50;;;0.00;4.80;;;;;;5029664;28;20226;-77
2022/12/03 10:37:14;;;;;;;45.83;28.70;;;0.00;12.70;;;;;;5037756;28;20243;-76
2022/12/03 10:39:57;;;;;;;107.47;68.23;;;0.10;18.90;;;;;;5040358;28;20202;-77
2022/12/03 10:42:25;;;;;;;52.87;32.27;;;0.40;19.70;;;;;;5040976;28;20671;-77
2022/12/03 10:45:21;;;;;;;59.47;36.80;;;0.40;20.60;;;;;;5038756;28;20495;-80
2022/12/03 10:48:26;;;;;;;48.07;30.77;;;0.50;1.00;;;;;;5042498;28;20265;-77
2022/12/03 10:50:55;;;;;;;52.77;31.43;;;0.30;7.10;;;;;;5038141;28;20213;-78
2022/12/03 10:53:26;;;;;;;46.77;29.23;;;0.30;5.70;;;;;;5040277;28;20457;-78
2022/12/03 10:55:57;;;;;;;71.63;45.40;;;0.40;6.10;;;;;;5039258;28;20771;-77
2022/12/03 10:58:27;;;;;;;64.87;39.30;;;0.60;1.00;;;;;;5041748;28;20190;-77
2022/12/03 11:00:55;;;;;;;54.93;32.80;;;0.60;1.00;;;;;;5039849;28;20204;-78
2022/12/03 11:03:23;;;;;;;111.27;57.63;;;0.60;1.00;;;;;;5040414;28;20209;-78
2022/12/03 11:05:50;;;;;;;68.27;40.23;;;0.60;1.00;;;;;;5041266;28;20190;-78
2022/12/03 11:08:25;;;;;;;109.13;58.63;;;0.60;1.00;;;;;;5040936;28;20178;-77
2022/12/03 11:11:03;;;;;;;52.50;31.83;;;0.60;1.00;;;;;;5039818;28;20221;-77
2022/12/03 11:13:32;;;;;;;65.27;39.00;;;0.70;1.00;;;;;;5041088;28;20224;-77
2022/12/03 11:15:59;;;;;;;60.43;36.10;;;0.60;1.00;;;;;;5041628;28;20269;-78
2022/12/03 11:18:37;;;;;;;147.73;83.77;;;0.60;1.00;;;;;;5040568;28;20680;-77
2022/12/03 11:21:04;;;;;;;56.97;34.87;;;0.60;1.00;;;;;;5042571;28;20194;-78
2022/12/03 11:23:45;;;;;;;48.67;29.50;;;0.50;1.00;;;;;;5040809;28;20249;-78
2022/12/03 11:26:15;;;;;;;57.40;34.87;;;0.40;1.00;;;;;;5042569;28;20190;-78
2022/12/03 11:28:53;;;;;;;51.43;31.10;;;0.50;1.00;;;;;;5042408;28;20652;-78
2022/12/03 11:31:36;;;;;;;48.03;28.10;;;0.30;1.00;;;;;;5042535;28;20205;-77
2022/12/03 11:34:30;;;;;;;47.90;28.97;;;0.20;2.90;;;;;;5042485;28;20208;-76
2022/12/03 11:37:11;;;;;;;46.80;28.50;;;0.20;1.00;;;;;;5033377;28;20655;-77
2022/12/03 11:39:54;;;;;;;49.00;30.00;;;0.20;3.90;;;;;;5041945;28;20186;-78
2022/12/03 11:42:25;;;;;;;54.17;30.90;;;0.30;4.30;;;;;;5041304;28;20197;-78
2022/12/03 11:45:03;;;;;;;55.83;34.27;;;0.30;1.00;;;;;;5042383;28;20238;-77
2022/12/03 11:47:57;;;;;;;53.27;32.63;;;0.50;1.00;;;;;;5042660;28;20225;-77
2022/12/03 11:50:27;;;;;;;45.87;28.80;;;0.50;1.00;;;;;;5041500;28;20217;-77
2022/12/03 11:53:10;;;;;;;60.27;35.80;;;0.50;1.00;;;;;;5041974;28;20239;-77
2022/12/03 11:55:39;;;;;;;62.53;39.90;;;0.60;1.00;;;;;;5042367;28;20189;-78
2022/12/03 11:58:22;;;;;;;77.50;47.60;;;0.60;1.00;;;;;;5044045;28;20651;-78
2022/12/03 12:00:54;;;;;;;54.00;32.40;;;0.50;1.00;;;;;;5045508;28;20178;-79
2022/12/03 12:03:21;;;;;;;57.33;35.93;;;0.40;1.00;;;;;;5037859;28;20221;-78
2022/12/03 12:06:00;;;;;;;53.37;33.50;;;0.40;1.00;;;;;;5044590;28;20333;-77
2022/12/03 12:08:25;;;;;;;86.30;53.23;;;0.20;1.00;;;;;;5041746;28;20279;-78
2022/12/03 12:10:51;;;;;;;49.80;29.73;;;0.10;1.00;;;;;;5042582;28;20209;-77
2022/12/03 12:13:30;;;;;;;46.97;28.10;;;0.10;1.00;;;;;;5041881;28;20210;-77
2022/12/03 12:16:06;;;;;;;50.57;28.90;;;-0.10;1.00;;;;;;5042909;28;20224;-77
2022/12/03 12:18:32;;;;;;;48.90;28.97;;;-0.30;2.30;;;;;;5042071;28;20192;-77
2022/12/03 12:21:37;;;;;;;50.20;29.60;;;-0.40;6.80;;;;;;5043794;28;20273;-77
2022/12/03 12:24:41;;;;;;;50.93;30.87;;;-0.40;15.90;;;;;;5040986;28;20233;-77
2022/12/03 12:27:12;;;;;;;50.13;28.47;;;-0.30;19.40;;;;;;5044087;28;20189;-77
2022/12/03 12:29:40;;;;;;;51.57;29.00;;;-0.30;18.50;;;;;;5043582;28;20214;-77
2022/12/03 12:32:08;;;;;;;51.70;28.93;;;-0.40;22.90;;;;;;5043627;28;20660;-77
2022/12/03 12:34:37;;;;;;;47.17;28.87;;;-0.30;29.80;;;;;;5043128;28;20573;-78
2022/12/03 12:37:09;;;;;;;50.63;29.97;;;-0.20;27.90;;;;;;5044220;28;20284;-77
2022/12/03 12:39:34;;;;;;;50.63;31.20;;;-0.20;30.40;;;;;;5043100;28;20190;-78
2022/12/03 12:42:05;;;;;;;53.53;30.60;;;-0.30;24.80;;;;;;5043426;28;20192;-77
2022/12/03 12:44:30;;;;;;;53.37;28.60;;;-0.40;26.00;;;;;;5043041;28;20206;-77
2022/12/03 12:47:00;;;;;;;51.17;31.03;;;-0.30;33.20;;;;;;5044113;28;20190;-77
2022/12/03 12:49:27;;;;;;;52.00;29.83;;;-0.40;23.00;;;;;;5043169;28;20386;-77
2022/12/03 12:51:53;;;;;;;52.30;30.80;;;-0.40;21.00;;;;;;5042244;28;20201;-77
2022/12/03 12:54:19;;;;;;;48.20;28.67;;;-0.40;23.90;;;;;;5041435;28;20210;-77
2022/12/03 12:56:48;;;;;;;50.10;29.97;;;-0.40;29.00;;;;;;5043417;28;20186;-77